Time;durP1;ratioP1;P1;durP2;ratioP2;P2;SDS_P1;SDS_P2;PMS_P1;PMS_P2;Temp;Humidity;BMP_temperature;BMP_pressure;BME280_temperature;BME280_humidity;BME280_pressure;Samples;Min_cycle;Max_cycle;Signal;HPM_P1;HPM_P2
2022/04/16 00:02:02;;;;;;;;;;;;;;;1.89;77.40;101933.84;5029707;28;20033;-78
2022/04/16 00:04:29;;;;;;;1.65;1.00;;;;;;;1.86;77.31;101932.38;5031602;28;19928;-79
2022/04/16 00:06:55;;;;;;;3.80;1.30;;;;;;;1.85;77.13;101929.84;5024513;28;20453;-79
2022/04/16 00:09:21;;;;;;;2.70;1.55;;;;;;;1.83;76.77;101948.16;5011571;28;20046;-77
2022/04/16 00:11:47;;;;;;;3.28;1.38;;;;;;;1.84;76.75;101931.72;5029341;28;20030;-77
2022/04/16 00:14:15;;;;;;;1.63;0.80;;;;;;;1.88;76.68;101935.72;5011743;28;20505;-78
2022/04/16 00:16:41;;;;;;;1.20;0.90;;;;;;;1.87;76.65;101944.03;5021686;28;20033;-77
2022/04/16 00:19:09;;;;;;;1.10;1.00;;;;;;;1.85;76.46;101941.53;5062608;28;20041;-77
2022/04/16 00:21:35;;;;;;;1.30;1.20;;;;;;;1.86;76.46;101945.91;5029788;28;20056;-77
2022/04/16 00:24:01;;;;;;;1.88;1.20;;;;;;;1.88;76.11;101948.41;5032522;28;20034;-79
2022/04/16 00:26:27;;;;;;;1.23;0.95;;;;;;;1.86;75.71;101937.78;5045962;28;20049;-77
2022/04/16 00:28:53;;;;;;;1.83;1.30;;;;;;;1.81;76.07;101948.34;5045730;28;20119;-78
2022/04/16 00:31:19;;;;;;;2.13;1.25;;;;;;;1.77;76.14;101953.31;5015211;28;20137;-78
2022/04/16 00:33:46;;;;;;;1.08;0.82;;;;;;;1.80;75.90;101952.09;5029734;28;20075;-77
2022/04/16 00:36:14;;;;;;;2.47;1.27;;;;;;;1.78;76.15;101949.56;5026963;28;20041;-77
2022/04/16 00:38:40;;;;;;;2.47;1.10;;;;;;;1.74;76.16;101959.13;5050976;28;20479;-77
2022/04/16 00:41:06;;;;;;;3.45;1.13;;;;;;;1.72;75.87;101965.72;5033705;28;20519;-78
2022/04/16 00:43:33;;;;;;;3.60;1.20;;;;;;;1.70;75.50;101962.38;5029632;28;20029;-78
2022/04/16 00:45:59;;;;;;;1.02;0.93;;;;;;;1.62;75.72;101959.78;5030259;28;20135;-78
2022/04/16 00:48:25;;;;;;;1.85;1.02;;;;;;;1.59;75.65;101976.41;5034701;28;20124;-78
2022/04/16 00:50:52;;;;;;;1.10;1.00;;;;;;;1.49;75.69;101973.97;5028928;28;20092;-78
2022/04/16 00:53:18;;;;;;;2.95;1.20;;;;;;;1.39;75.59;101970.72;5046259;28;20037;-78
2022/04/16 00:55:44;;;;;;;1.60;0.95;;;;;;;1.36;76.04;101982.75;5027006;28;20570;-78
2022/04/16 00:58:10;;;;;;;1.50;1.10;;;;;;;1.32;76.38;101984.16;5033990;28;20033;-78
2022/04/16 01:00:35;;;;;;;1.13;0.93;;;;;;;1.25;75.96;101979.69;5028835;28;20052;-78
2022/04/16 01:03:01;;;;;;;2.08;1.05;;;;;;;1.20;76.63;101985.66;5013359;28;20493;-78
2022/04/16 01:05:27;;;;;;;1.30;0.88;;;;;;;1.18;76.80;101998.50;5022083;28;20041;-78
2022/04/16 01:07:53;;;;;;;1.00;0.73;;;;;;;1.14;76.23;101981.00;5029298;28;20045;-78
2022/04/16 01:10:20;;;;;;;2.17;1.08;;;;;;;1.12;76.52;101988.47;5030151;28;20136;-78
2022/04/16 01:12:46;;;;;;;2.17;1.40;;;;;;;1.12;76.46;101989.28;5030272;28;20041;-78
2022/04/16 01:15:13;;;;;;;1.77;1.10;;;;;;;1.08;75.82;101995.28;5031817;28;20084;-78
2022/04/16 01:17:40;;;;;;;1.80;1.20;;;;;;;1.02;75.94;101987.88;5037790;28;20421;-78
2022/04/16 01:20:06;;;;;;;2.55;1.05;;;;;;;1.01;76.24;102010.53;5043664;28;20553;-78
2022/04/16 01:22:32;;;;;;;1.48;0.85;;;;;;;0.99;76.22;101994.50;5041260;28;20064;-78
2022/04/16 01:24:59;;;;;;;1.83;1.20;;;;;;;0.95;76.41;102005.88;5038892;28;20492;-78
2022/04/16 01:27:25;;;;;;;3.00;0.85;;;;;;;0.90;76.42;102012.69;5029949;28;20060;-78
2022/04/16 01:29:53;;;;;;;0.80;0.80;;;;;;;0.88;76.44;102024.69;5044690;28;20645;-78
2022/04/16 01:32:19;;;;;;;1.63;1.20;;;;;;;0.77;76.52;102012.44;5028712;28;20041;-78
2022/04/16 01:34:45;;;;;;;1.45;1.10;;;;;;;0.75;76.91;102019.06;5031575;28;20401;-78
2022/04/16 01:37:12;;;;;;;2.00;1.10;;;;;;;0.74;76.75;102026.34;5033772;28;20045;-78
2022/04/16 01:39:38;;;;;;;2.42;1.08;;;;;;;0.69;76.96;102028.72;5034578;28;20515;-78
2022/04/16 01:42:04;;;;;;;1.73;1.13;;;;;;;0.64;76.93;102027.59;5016454;28;20046;-78
2022/04/16 01:44:29;;;;;;;1.73;1.23;;;;;;;0.58;77.05;102023.78;5033128;28;20044;-78
2022/04/16 01:46:56;;;;;;;3.42;1.30;;;;;;;0.56;77.27;102034.75;5034870;28;20055;-78
2022/04/16 01:49:22;;;;;;;1.92;1.17;;;;;;;0.50;77.16;102031.91;5027884;28;20041;-78
2022/04/16 01:51:48;;;;;;;1.80;1.00;;;;;;;0.49;77.34;102039.19;5023288;28;20061;-78
2022/04/16 01:54:14;;;;;;;1.65;0.93;;;;;;;0.46;77.32;102039.56;5034189;28;20350;-78
2022/04/16 01:56:40;;;;;;;1.20;1.10;;;;;;;0.47;77.94;102040.38;5050320;28;20033;-78
2022/04/16 01:59:08;;;;;;;0.80;0.80;;;;;;;0.48;76.84;102042.91;5033367;28;20048;-78
2022/04/16 02:01:34;;;;;;;1.25;0.85;;;;;;;0.46;76.73;102050.34;5034152;28;20041;-78
2022/04/16 02:04:00;;;;;;;1.77;1.10;;;;;;;0.40;76.55;102042.97;5041275;28;20037;-78
2022/04/16 02:06:26;;;;;;;1.73;1.00;;;;;;;0.37;77.10;102053.31;5033904;28;20037;-78
2022/04/16 02:08:52;;;;;;;1.10;0.90;;;;;;;0.35;77.27;102058.03;5033434;28;20037;-79
2022/04/16 02:11:17;;;;;;;1.02;0.90;;;;;;;0.30;77.21;102061.25;5014335;28;20041;-78
2022/04/16 02:13:44;;;;;;;3.83;0.98;;;;;;;0.26;76.87;102060.78;5014339;28;20042;-78
2022/04/16 02:16:10;;;;;;;0.40;0.30;;;;;;;0.25;77.67;102048.31;5014106;28;20050;-78
2022/04/16 02:18:36;;;;;;;2.33;1.00;;;;;;;0.30;76.42;102062.09;5045432;28;20091;-78
2022/04/16 02:21:02;;;;;;;0.85;0.80;;;;;;;0.25;77.08;102066.38;5049993;28;20588;-78
2022/04/16 02:23:28;;;;;;;1.10;0.90;;;;;;;0.21;76.81;102068.59;5031017;28;20045;-78
2022/04/16 02:25:53;;;;;;;1.08;0.70;;;;;;;0.23;77.14;102061.16;5014899;28;20096;-78
2022/04/16 02:28:21;;;;;;;2.45;1.20;;;;;;;0.25;77.10;102063.66;5013693;28;20508;-77
2022/04/16 02:30:47;;;;;;;1.08;0.90;;;;;;;0.16;77.05;102064.72;5022021;28;20094;-77
2022/04/16 02:33:13;;;;;;;0.80;0.80;;;;;;;0.13;77.13;102071.31;5033307;28;20117;-78
2022/04/16 02:35:40;;;;;;;2.10;0.80;;;;;;;0.12;77.23;102076.91;5033527;28;20456;-78
2022/04/16 02:38:06;;;;;;;2.20;1.00;;;;;;;0.09;77.80;102067.31;5038874;28;20037;-78
2022/04/16 02:40:33;;;;;;;2.28;1.02;;;;;;;0.09;77.16;102071.84;5052355;28;20040;-78
2022/04/16 02:42:58;;;;;;;1.67;0.90;;;;;;;0.03;77.39;102070.72;5032354;28;20116;-78
2022/04/16 02:48:08;;;;;;;2.33;0.77;;;;;;;0.02;77.77;102079.84;5025336;28;20183;-78
2022/04/16 02:50:34;;;;;;;2.65;0.95;;;;;;;0.06;77.79;102080.31;5033142;28;20123;-78
2022/04/16 02:53:00;;;;;;;1.13;1.02;;;;;;;0.04;77.40;102083.19;5028005;28;20041;-78
2022/04/16 02:55:26;;;;;;;1.92;1.08;;;;;;;0.05;77.71;102095.66;5048291;28;20044;-77
2022/04/16 02:57:52;;;;;;;1.42;0.95;;;;;;;-0.03;77.70;102087.59;5068184;28;20036;-77
2022/04/16 03:00:22;;;;;;;1.50;1.05;;;;;;;-0.02;77.75;102100.06;5052737;28;20040;-78
2022/04/16 03:02:48;;;;;;;1.75;1.20;;;;;;;0.00;77.98;102106.16;5028476;28;20042;-78
2022/04/16 03:05:14;;;;;;;1.17;1.00;;;;;;;0.02;77.84;102104.13;5051006;28;20100;-78
2022/04/16 03:07:40;;;;;;;1.35;1.00;;;;;;;0.01;77.74;102110.53;5020265;28;20029;-78
2022/04/16 03:10:08;;;;;;;4.90;1.20;;;;;;;0.08;77.83;102106.09;5026364;28;20040;-78
2022/04/16 03:13:00;;;;;;;2.53;1.33;;;;;;;0.07;78.08;102115.22;5028498;28;20037;-78
2022/04/16 03:18:10;;;;;;;3.78;1.80;;;;;;;0.06;77.87;102121.63;5022767;28;20111;-78
2022/04/16 03:20:37;;;;;;;2.92;1.58;;;;;;;0.15;78.20;102128.66;5030302;28;20069;-78
2022/04/16 03:23:03;;;;;;;2.70;1.33;;;;;;;0.26;77.79;102125.56;5052416;28;20041;-78
2022/04/16 03:25:30;;;;;;;2.28;1.40;;;;;;;0.50;77.16;102121.88;5049277;28;20040;-78
2022/04/16 03:27:56;;;;;;;2.35;1.20;;;;;;;0.66;76.50;102112.84;5025278;28;20049;-78
2022/04/16 03:30:23;;;;;;;3.15;1.30;;;;;;;0.68;75.99;102124.28;5033262;28;20052;-78
2022/04/16 03:32:49;;;;;;;5.25;1.60;;;;;;;0.94;75.87;102140.16;5040508;28;20061;-78
2022/04/16 03:35:18;;;;;;;0.90;0.40;;;;;;;1.09;74.65;102124.84;5038680;28;20107;-78
2022/04/16 03:37:43;;;;;;;1.93;1.20;;;;;;;1.28;73.77;102137.00;5055991;28;20042;-78
2022/04/16 03:40:10;;;;;;;2.63;0.93;;;;;;;1.46;73.27;102136.66;5011145;28;20037;-78
2022/04/16 03:42:46;;;;;;;1.27;1.00;;;;;;;1.77;72.81;102134.63;5014914;28;20191;-79
2022/04/16 03:45:27;;;;;;;2.50;1.30;;;;;;;1.97;71.06;102132.19;5032610;28;20064;-79
2022/04/16 03:47:57;;;;;;;0.77;0.73;;;;;;;2.20;70.49;102136.63;5013685;28;20049;-79
2022/04/16 03:50:24;;;;;;;2.13;1.40;;;;;;;2.35;69.37;102141.00;5022707;28;20566;-78
2022/04/16 03:52:51;;;;;;;1.65;1.27;;;;;;;2.51;69.22;102150.78;5051217;28;20051;-79
2022/04/16 04:00:58;;;;;;;2.08;1.27;;;;;;;2.94;67.62;102157.06;5039284;28;20048;-78
2022/04/16 04:03:24;;;;;;;1.30;1.10;;;;;;;3.10;65.71;102165.97;5033541;28;20112;-78
2022/04/16 04:05:53;;;;;;;1.25;1.15;;;;;;;3.01;66.70;102151.72;5033013;28;20049;-78
2022/04/16 04:08:20;;;;;;;1.25;1.00;;;;;;;3.45;66.09;102165.03;5030433;28;20042;-78
2022/04/16 04:10:46;;;;;;;1.38;1.00;;;;;;;3.52;64.29;102167.81;5030414;28;20497;-78
2022/04/16 04:13:13;;;;;;;2.53;1.58;;;;;;;3.60;65.14;102164.94;5034166;28;20090;-78
2022/04/16 04:15:42;;;;;;;1.35;0.77;;;;;;;3.76;63.83;102166.50;5028020;28;20602;-78
2022/04/16 04:18:07;;;;;;;1.30;1.17;;;;;;;3.60;63.50;102167.66;5032031;28;20048;-78
2022/04/16 04:20:36;;;;;;;0.52;0.40;;;;;;;3.46;63.72;102171.28;5031192;28;20037;-77
2022/04/16 04:23:05;;;;;;;0.93;0.68;;;;;;;3.55;63.65;102178.28;5051345;28;20093;-78
2022/04/16 04:25:31;;;;;;;0.95;0.50;;;;;;;3.78;63.42;102189.69;5044323;28;20063;-78
2022/04/16 04:27:57;;;;;;;2.28;1.50;;;;;;;3.92;62.61;102185.22;5032515;28;20093;-77
2022/04/16 04:30:23;;;;;;;1.85;1.08;;;;;;;4.06;62.44;102195.13;5029652;28;20051;-78
2022/04/16 04:32:49;;;;;;;2.05;1.20;;;;;;;4.17;61.09;102191.84;5034874;28;20504;-78
2022/04/16 04:35:15;;;;;;;2.25;1.05;;;;;;;4.04;61.85;102188.22;5031050;28;20045;-78
2022/04/16 04:37:42;;;;;;;2.13;1.30;;;;;;;4.17;61.13;102180.16;5031763;28;20083;-78
2022/04/16 04:40:08;;;;;;;1.15;1.08;;;;;;;4.49;60.26;102194.91;5037264;28;20579;-79
2022/04/16 04:42:35;;;;;;;1.65;1.00;;;;;;;4.38;59.91;102196.34;5040779;28;20419;-77
2022/04/16 04:45:11;;;;;;;1.80;1.05;;;;;;;4.23;59.38;102193.75;5024071;28;20528;-78
2022/04/16 04:47:37;;;;;;;2.88;1.05;;;;;;;4.37;60.34;102197.38;5042964;28;20056;-78
2022/04/16 04:50:04;;;;;;;1.13;0.93;;;;;;;4.76;59.01;102188.53;5035456;28;20056;-78
2022/04/16 04:52:30;;;;;;;2.80;1.17;;;;;;;5.03;57.98;102199.47;5051106;28;20037;-79
2022/04/16 04:54:59;;;;;;;3.35;1.20;;;;;;;5.38;56.92;102198.28;5032522;28;20539;-79
2022/04/16 04:57:26;;;;;;;2.47;1.13;;;;;;;5.59;56.84;102196.38;5011708;28;20042;-79
2022/04/16 04:59:51;;;;;;;2.05;0.90;;;;;;;5.54;56.50;102204.31;5036237;28;20051;-80
2022/04/16 05:02:17;;;;;;;2.38;0.88;;;;;;;5.82;55.49;102201.38;5011031;28;20046;-80
2022/04/16 05:04:43;;;;;;;3.58;1.17;;;;;;;6.32;54.50;102208.88;5010333;28;20129;-80
2022/04/16 05:07:09;;;;;;;0.77;0.70;;;;;;;5.81;53.85;102203.28;5011164;28;20120;-78
2022/04/16 05:09:36;;;;;;;1.45;0.80;;;;;;;5.52;54.30;102212.72;5012588;28;20065;-78
2022/04/16 05:12:02;;;;;;;2.30;1.00;;;;;;;5.43;55.39;102213.97;5011467;28;20053;-78
2022/04/16 05:14:28;;;;;;;0.85;0.80;;;;;;;5.56;54.88;102203.09;5029982;28;20044;-79
2022/04/16 05:16:53;;;;;;;3.33;1.00;;;;;;;5.43;54.79;102203.09;5050842;28;20462;-78
2022/04/16 05:19:19;;;;;;;1.63;0.90;;;;;;;6.01;54.52;102208.72;5042788;28;20052;-78
2022/04/16 05:21:45;;;;;;;3.00;0.80;;;;;;;5.93;53.61;102217.97;5030942;28;20041;-79
2022/04/16 05:24:11;;;;;;;2.33;1.00;;;;;;;5.80;53.50;102206.22;5022014;28;20065;-79
2022/04/16 05:26:39;;;;;;;4.72;1.40;;;;;;;5.84;53.96;102208.31;5010792;28;20058;-79
2022/04/16 05:29:06;;;;;;;1.85;0.85;;;;;;;6.08;53.42;102206.00;5025699;28;20500;-81
2022/04/16 05:31:32;;;;;;;1.67;0.95;;;;;;;5.89;53.14;102213.94;5031658;28;20463;-79
2022/04/16 05:36:43;;;;;;;2.95;1.00;;;;;;;5.84;52.66;102207.47;5024153;28;20061;-79
2022/04/16 05:39:09;;;;;;;1.33;0.95;;;;;;;5.83;53.11;102211.25;5050094;28;20418;-79
2022/04/16 05:41:34;;;;;;;1.77;1.40;;;;;;;6.15;52.42;102210.38;5042991;28;20562;-79
2022/04/16 05:44:00;;;;;;;1.88;0.93;;;;;;;6.32;52.66;102214.31;5029880;28;20037;-79
2022/04/16 05:46:26;;;;;;;2.30;0.90;;;;;;;7.24;52.02;102217.63;5030483;28;20049;-79
2022/04/16 05:48:52;;;;;;;3.90;0.80;;;;;;;8.13;49.79;102217.28;5030636;28;20531;-79
2022/04/16 05:51:18;;;;;;;1.33;0.93;;;;;;;8.68;47.90;102221.97;5028839;28;20762;-80
2022/04/16 05:53:45;;;;;;;1.52;0.68;;;;;;;8.15;47.38;102226.09;5035315;28;20043;-80
2022/04/16 05:56:11;;;;;;;2.58;1.10;;;;;;;8.32;48.08;102211.81;5015995;28;20038;-80
2022/04/16 05:58:37;;;;;;;1.50;1.00;;;;;;;9.13;45.91;102214.19;5043979;28;20048;-79
2022/04/16 06:01:03;;;;;;;2.15;0.98;;;;;;;9.73;44.56;102219.56;5050276;28;20523;-79
2022/04/16 06:03:29;;;;;;;2.17;0.90;;;;;;;9.57;44.85;102226.56;5034873;28;20086;-78
2022/04/16 06:05:56;;;;;;;1.65;1.00;;;;;;;9.09;44.15;102234.88;5015164;28;20104;-78
2022/04/16 06:08:21;;;;;;;3.25;1.10;;;;;;;8.88;45.85;102230.75;5025763;28;20037;-80
2022/04/16 06:10:47;;;;;;;2.20;0.98;;;;;;;8.89;44.43;102220.66;5012258;28;20045;-80
2022/04/16 06:13:13;;;;;;;1.08;0.70;;;;;;;8.13;45.80;102225.47;5012123;28;20575;-80
2022/04/16 06:15:41;;;;;;;1.83;1.02;;;;;;;7.94;46.57;102232.00;5023855;28;20117;-79
2022/04/16 06:18:08;;;;;;;3.33;1.08;;;;;;;7.97;46.47;102228.81;5032957;28;20045;-78
2022/04/16 06:20:35;;;;;;;0.82;0.70;;;;;;;8.62;45.21;102228.34;5051557;28;20045;-79
2022/04/16 06:23:01;;;;;;;2.58;0.80;;;;;;;8.61;44.78;102223.94;5054069;28;20064;-79
2022/04/16 06:25:27;;;;;;;2.75;0.82;;;;;;;9.08;44.63;102235.97;5042756;28;20499;-80
2022/04/16 06:27:53;;;;;;;1.75;0.90;;;;;;;9.42;43.03;102234.41;5035202;28;20563;-79
2022/04/16 06:30:18;;;;;;;6.10;1.10;;;;;;;9.73;42.97;102233.28;5033471;28;20052;-80
2022/04/16 06:32:44;;;;;;;4.20;1.10;;;;;;;10.35;42.62;102239.13;5026990;28;20107;-78
2022/04/16 06:35:12;;;;;;;3.30;1.50;;;;;;;10.71;41.70;102235.22;5015148;28;20137;-80
2022/04/16 06:37:38;;;;;;;2.95;1.63;;;;;;;10.50;40.84;102238.63;5050144;28;20124;-81
2022/04/16 06:40:06;;;;;;;3.80;1.52;;;;;;;10.42;41.67;102237.13;5041735;28;20053;-79
2022/04/16 06:42:31;;;;;;;3.85;1.38;;;;;;;10.81;41.47;102237.38;5030497;28;20120;-79
2022/04/16 06:44:57;;;;;;;4.45;0.95;;;;;;;11.30;39.11;102240.53;5025349;28;20167;-79
2022/04/16 06:47:23;;;;;;;1.60;0.90;;;;;;;10.53;39.62;102252.69;5023149;28;20064;-80
2022/04/16 06:49:49;;;;;;;2.67;0.82;;;;;;;9.68;41.93;102244.94;5013509;28;20196;-78
2022/04/16 06:52:18;;;;;;;2.83;1.10;;;;;;;8.86;42.56;102254.78;5026915;28;20531;-80
2022/04/16 06:54:45;;;;;;;3.70;1.15;;;;;;;8.70;44.37;102261.72;5012968;28;20184;-81
2022/04/16 06:57:10;;;;;;;3.50;1.00;;;;;;;8.73;43.29;102253.06;5022096;28;20041;-80
2022/04/16 06:59:37;;;;;;;1.25;0.80;;;;;;;8.62;43.67;102261.19;5033288;28;20052;-80
2022/04/16 07:02:08;;;;;;;1.75;0.70;;;;;;;8.49;44.31;102250.38;5034708;28;20040;-80
2022/04/16 07:04:33;;;;;;;2.00;0.93;;;;;;;8.43;43.64;102257.59;5053109;28;20068;-80
2022/04/16 07:06:59;;;;;;;1.15;0.80;;;;;;;8.08;44.95;102252.69;5041908;28;20118;-80
2022/04/16 07:09:25;;;;;;;1.50;1.00;;;;;;;8.34;45.55;102256.25;5032855;28;20046;-79
2022/04/16 07:11:51;;;;;;;1.83;0.80;;;;;;;8.67;43.87;102258.59;5032919;28;20049;-80
2022/04/16 07:14:16;;;;;;;1.02;0.70;;;;;;;9.18;42.97;102251.81;5014148;28;20515;-79
2022/04/16 07:16:42;;;;;;;1.15;0.80;;;;;;;9.75;42.19;102252.22;5013088;28;20046;-79
2022/04/16 07:19:09;;;;;;;1.75;0.95;;;;;;;10.64;40.72;102250.19;5045131;28;20523;-79
2022/04/16 07:21:35;;;;;;;3.42;1.02;;;;;;;10.24;40.07;102253.72;5023928;28;20049;-79
2022/04/16 07:24:00;;;;;;;2.08;0.82;;;;;;;10.47;40.06;102253.69;5022879;28;20508;-78
2022/04/16 07:26:26;;;;;;;2.35;0.80;;;;;;;9.67;40.40;102259.69;5015356;28;20055;-79
2022/04/16 07:28:57;;;;;;;3.33;1.35;;;;;;;8.84;41.47;102259.63;5023712;28;20421;-78
2022/04/16 07:31:23;;;;;;;1.23;0.80;;;;;;;8.84;41.64;102256.06;5032527;28;20071;-77
2022/04/16 07:33:49;;;;;;;4.35;0.90;;;;;;;8.75;41.59;102263.75;5029123;28;20523;-77
2022/04/16 07:36:14;;;;;;;2.72;0.73;;;;;;;8.62;41.40;102270.22;5013064;28;20046;-79
2022/04/16 07:38:43;;;;;;;1.85;0.80;;;;;;;9.04;41.96;102260.25;5015372;28;20042;-79
2022/04/16 07:41:11;;;;;;;6.35;0.88;;;;;;;9.82;41.01;102262.00;5018124;28;20479;-79
2022/04/16 07:43:37;;;;;;;1.95;1.17;;;;;;;9.94;39.68;102259.28;5027553;28;20041;-78
2022/04/16 07:46:03;;;;;;;1.63;0.90;;;;;;;10.07;40.16;102271.94;5036838;28;20037;-79
2022/04/16 07:48:28;;;;;;;3.38;1.30;;;;;;;9.90;40.18;102267.16;5012497;28;20042;-78
2022/04/16 07:50:54;;;;;;;3.85;0.90;;;;;;;9.51;41.13;102265.84;5012649;28;20042;-77
2022/04/16 07:53:21;;;;;;;4.13;1.10;;;;;;;9.71;40.61;102270.19;5012903;28;20133;-78
2022/04/16 07:55:47;;;;;;;1.73;0.80;;;;;;;10.01;39.45;102270.13;5033572;28;20041;-77
2022/04/16 07:58:13;;;;;;;2.50;1.00;;;;;;;10.25;39.90;102261.69;5032365;28;20045;-77
2022/04/16 08:00:39;;;;;;;3.97;0.80;;;;;;;10.58;37.78;102265.69;5035314;28;20036;-77
2022/04/16 08:03:05;;;;;;;1.80;0.90;;;;;;;10.39;38.81;102266.91;5036042;28;20037;-77
2022/04/16 08:05:31;;;;;;;3.33;0.82;;;;;;;10.60;38.89;102274.56;5036435;28;20044;-78
2022/04/16 08:07:56;;;;;;;4.43;0.75;;;;;;;10.93;39.19;102265.59;5042017;28;20045;-77
2022/04/16 08:10:27;;;;;;;1.55;0.70;;;;;;;11.73;37.53;102267.38;5011669;28;20037;-77
2022/04/16 08:12:53;;;;;;;3.17;1.02;;;;;;;12.37;35.26;102279.72;5011992;28;20133;-78
2022/04/16 08:15:18;;;;;;;2.38;0.68;;;;;;;12.24;35.09;102271.81;5012171;28;20172;-78
2022/04/16 08:17:44;;;;;;;3.97;1.08;;;;;;;12.16;34.50;102276.94;5023564;28;20387;-78
2022/04/16 08:20:10;;;;;;;3.00;0.90;;;;;;;11.39;35.76;102269.25;5030790;28;20496;-78
2022/04/16 08:22:38;;;;;;;1.95;0.73;;;;;;;10.57;37.78;102278.59;5032810;28;20041;-77
2022/04/16 08:27:48;;;;;;;1.08;0.88;;;;;;;8.86;40.16;102286.81;5032727;28;20082;-77
2022/04/16 08:30:16;;;;;;;5.75;0.95;;;;;;;9.31;39.78;102276.28;5030847;28;20427;-77
2022/04/16 08:32:43;;;;;;;3.83;1.00;;;;;;;10.08;38.18;102285.41;5011444;28;20046;-78
2022/04/16 08:35:09;;;;;;;4.13;1.10;;;;;;;10.42;38.30;102282.94;5025646;28;20047;-80
2022/04/16 08:37:35;;;;;;;9.80;1.40;;;;;;;10.82;37.78;102289.31;5015918;28;20038;-78
2022/04/16 08:40:01;;;;;;;3.65;0.98;;;;;;;9.71;38.10;102287.47;5016152;28;20054;-84
2022/04/16 08:42:29;;;;;;;4.78;1.17;;;;;;;9.03;39.45;102293.31;5026635;28;20045;-79
2022/04/16 08:44:54;;;;;;;3.75;1.05;;;;;;;9.21;38.83;102295.19;5017615;28;20060;-79
2022/04/16 08:47:20;;;;;;;4.07;1.00;;;;;;;9.19;38.73;102303.63;5049509;28;20041;-78
2022/04/16 08:49:46;;;;;;;2.83;0.82;;;;;;;9.53;37.96;102293.03;5044398;28;20042;-79
2022/04/16 08:52:11;;;;;;;2.28;0.90;;;;;;;9.32;38.33;102305.34;5022181;28;20037;-81
2022/04/16 08:54:38;;;;;;;2.58;0.70;;;;;;;8.70;39.60;102310.16;5031476;28;20126;-77
2022/04/16 08:57:05;;;;;;;1.80;0.77;;;;;;;8.52;40.47;102300.03;5027239;28;20548;-77
2022/04/16 08:59:31;;;;;;;2.13;1.00;;;;;;;8.92;39.49;102296.84;5021984;28;20061;-79
2022/04/16 09:01:58;;;;;;;4.47;1.00;;;;;;;9.71;38.89;102300.34;5051905;28;20595;-80
2022/04/16 09:04:28;;;;;;;3.80;0.90;;;;;;;9.50;39.19;102298.97;5011666;28;20046;-81
2022/04/16 09:07:02;;;;;;;3.63;1.40;;;;;;;9.83;38.28;102299.31;5020597;28;20127;-81
2022/04/16 09:09:28;;;;;;;1.40;0.95;;;;;;;9.82;37.06;102294.06;5028530;28;20048;-77
2022/04/16 09:11:54;;;;;;;3.38;0.90;;;;;;;10.17;36.84;102300.41;5013147;28;20084;-77
2022/04/16 09:14:21;;;;;;;0.73;0.70;;;;;;;9.41;37.80;102295.75;5008146;28;20240;-76
2022/04/16 09:16:47;;;;;;;0.70;0.70;;;;;;;9.40;38.81;102294.09;5007695;28;20133;-75
2022/04/16 09:19:17;;;;;;;2.17;0.80;;;;;;;8.66;38.12;102303.44;5010864;28;20124;-76
2022/04/16 09:21:43;;;;;;;3.50;1.05;;;;;;;7.98;39.37;102308.91;5015007;28;20212;-77
2022/04/16 09:24:10;;;;;;;4.55;0.90;;;;;;;6.86;42.36;102310.44;5011222;28;20081;-78
2022/04/16 09:26:38;;;;;;;6.18;0.95;;;;;;;6.16;44.61;102317.50;5030474;28;20049;-77
2022/04/16 09:29:07;;;;;;;2.33;0.88;;;;;;;5.69;45.18;102309.28;5031425;28;20053;-79
2022/04/16 09:31:34;;;;;;;1.50;0.77;;;;;;;5.48;43.25;102303.19;5030569;28;20049;-80
2022/04/16 09:34:01;;;;;;;1.73;0.65;;;;;;;5.08;44.58;102336.56;5031620;28;20065;-80
2022/04/16 09:36:27;;;;;;;2.28;0.60;;;;;;;4.72;44.98;102308.78;5031492;28;20045;-79
2022/04/16 09:39:05;;;;;;;2.50;1.00;;;;;;;4.65;44.35;102310.63;5022125;28;20041;-81
2022/04/16 09:41:34;;;;;;;1.55;0.80;;;;;;;4.62;44.34;102309.16;5021244;28;20051;-79
2022/04/16 09:44:01;;;;;;;4.03;1.02;;;;;;;4.69;44.98;102307.31;5031322;28;20047;-79
2022/04/16 09:46:29;;;;;;;2.22;0.90;;;;;;;4.93;45.21;102305.13;5028931;28;22777;-80
2022/04/16 09:49:02;;;;;;;4.13;1.20;;;;;;;4.93;44.19;102313.28;5030492;28;20038;-80
2022/04/16 09:51:33;;;;;;;2.03;1.10;;;;;;;4.99;43.15;102320.63;5025647;28;20049;-80
2022/04/16 09:53:59;;;;;;;2.53;0.63;;;;;;;4.79;42.29;102320.53;5014953;28;20088;-78
2022/04/16 09:56:28;;;;;;;3.97;0.90;;;;;;;4.61;43.05;102323.78;5053489;28;20041;-77
2022/04/16 09:58:55;;;;;;;1.10;0.80;;;;;;;4.56;44.75;102314.56;5015632;28;20041;-79
2022/04/16 10:01:22;;;;;;;3.13;1.07;;;;;;;4.71;43.99;102327.00;5011943;28;20088;-78
2022/04/16 10:03:49;;;;;;;1.70;1.05;;;;;;;4.63;44.10;102327.13;5015049;28;20037;-79
2022/04/16 10:06:16;;;;;;;2.33;0.68;;;;;;;4.62;44.34;102314.59;5016392;28;20073;-78
2022/04/16 10:08:42;;;;;;;2.30;0.50;;;;;;;4.77;43.91;102322.63;5034745;28;20087;-78
2022/04/16 10:11:19;;;;;;;2.72;0.80;;;;;;;4.74;43.10;102323.03;5028792;28;20049;-79
2022/04/16 10:13:52;;;;;;;5.97;1.05;;;;;;;4.79;43.91;102315.09;5024079;28;20447;-81
2022/04/16 10:16:26;;;;;;;3.28;0.98;;;;;;;4.90;42.66;102309.09;5063319;28;20043;-78
2022/04/16 10:18:52;;;;;;;1.27;0.65;;;;;;;4.74;43.12;102318.44;5023315;28;20069;-78
2022/04/16 10:21:18;;;;;;;5.57;0.68;;;;;;;4.68;42.28;102324.66;5027412;28;20080;-78
2022/04/16 10:23:44;;;;;;;4.20;0.80;;;;;;;4.49;42.40;102318.06;5018524;28;20559;-78
2022/04/16 10:26:12;;;;;;;1.85;0.82;;;;;;;4.45;43.09;102300.47;5013163;28;20061;-79
2022/04/16 10:28:44;;;;;;;3.65;0.80;;;;;;;4.61;43.05;102328.38;5028616;28;20076;-79
2022/04/16 10:31:23;;;;;;;2.42;0.75;;;;;;;4.82;42.15;102322.84;5028995;28;20068;-79
2022/04/16 10:34:05;;;;;;;1.13;0.73;;;;;;;4.71;41.53;102313.41;5033273;28;20128;-79
2022/04/16 10:36:38;;;;;;;3.47;0.60;;;;;;;4.68;42.10;102326.53;4996817;28;20100;-80
2022/04/16 10:39:17;;;;;;;1.98;0.55;;;;;;;4.62;41.04;102322.75;5027135;28;20087;-79
2022/04/16 10:41:53;;;;;;;;;;;;;;;4.66;41.48;102317.75;5033610;28;20037;-79
2022/04/16 10:44:19;;;;;;;2.28;0.73;;;;;;;4.59;40.84;102323.16;5012107;28;19925;-79
2022/04/16 10:46:47;;;;;;;1.13;0.60;;;;;;;4.45;42.65;102327.66;5028274;28;20034;-79
2022/04/16 10:49:14;;;;;;;1.70;0.90;;;;;;;4.53;43.78;102330.25;5052608;28;20059;-79
2022/04/16 10:51:39;;;;;;;0.80;0.75;;;;;;;4.63;43.52;102318.16;5034926;28;20499;-79
2022/04/16 10:54:11;;;;;;;2.20;0.70;;;;;;;4.67;43.47;102312.09;5050353;28;20048;-78
2022/04/16 10:56:40;;;;;;;2.80;0.77;;;;;;;4.71;43.61;102318.84;5031730;28;20064;-77
2022/04/16 10:59:11;;;;;;;0.43;0.40;;;;;;;4.69;43.22;102320.09;5032871;28;20038;-78
2022/04/16 11:01:37;;;;;;;0.57;0.50;;;;;;;4.70;43.78;102327.19;5015641;28;20105;-78
2022/04/16 11:04:13;;;;;;;2.05;0.88;;;;;;;4.63;43.30;102318.16;5032015;28;20041;-79
2022/04/16 11:06:46;;;;;;;1.15;0.68;;;;;;;4.68;43.52;102324.66;5032329;28;20057;-78
2022/04/16 11:09:13;;;;;;;1.52;0.70;;;;;;;4.66;43.38;102315.84;5032643;28;20037;-80
2022/04/16 11:11:41;;;;;;;2.58;1.00;;;;;;;4.65;43.49;102329.66;5031197;28;20069;-79
2022/04/16 11:14:10;;;;;;;1.40;0.60;;;;;;;4.63;42.77;102320.88;5031516;28;20033;-79
2022/04/16 11:16:42;;;;;;;;;;;;;;;4.56;43.88;102320.84;5065108;28;20038;-79
2022/04/16 11:19:15;;;;;;;3.63;0.60;;;;;;;4.58;44.28;102320.63;5046756;28;19943;-79
2022/04/16 11:21:42;;;;;;;1.75;0.60;;;;;;;4.71;43.19;102318.84;5027544;28;20038;-79
2022/04/16 11:24:09;;;;;;;1.50;0.70;;;;;;;4.77;43.41;102317.19;5019594;28;20068;-79
2022/04/16 11:34:57;;;;;;;2.42;0.70;;;;;;;4.76;42.91;102323.66;5052037;28;20037;-79
2022/04/16 11:37:24;;;;;;;1.73;0.50;;;;;;;4.74;42.24;102318.44;5050380;28;20060;-79
2022/04/16 11:40:05;;;;;;;1.23;0.47;;;;;;;4.86;41.86;102337.75;5039470;28;20385;-79
2022/04/16 11:42:31;;;;;;;0.68;0.60;;;;;;;4.90;40.99;102322.69;5010867;28;20044;-78
2022/04/16 11:44:58;;;;;;;2.30;0.60;;;;;;;4.81;40.89;102337.47;5010397;28;20463;-78
2022/04/16 11:47:26;;;;;;;1.35;0.40;;;;;;;4.62;41.38;102330.91;5027245;28;20146;-78
2022/04/16 11:49:58;;;;;;;2.17;0.75;;;;;;;4.60;40.83;102330.25;5011874;28;20038;-79
2022/04/16 11:52:32;;;;;;;3.63;0.75;;;;;;;4.61;41.23;102318.34;5004458;28;20037;-78
2022/04/16 11:55:13;;;;;;;2.65;0.70;;;;;;;4.70;41.75;102319.03;5031970;28;20449;-79
2022/04/16 11:57:44;;;;;;;1.42;0.80;;;;;;;4.79;42.04;102325.97;5030503;28;20033;-79
2022/04/16 12:00:13;;;;;;;3.53;1.00;;;;;;;4.78;41.77;102325.13;5030389;28;20049;-79